createdAt,value
2019-04-22T00:00:04.604Z,57.3
2019-04-22T00:00:54.181Z,57.2
2019-04-22T00:02:39.914Z,57.1
2019-04-22T00:03:33.802Z,57.2
2019-04-22T00:04:17.683Z,57.1
2019-04-22T00:05:13.007Z,57
2019-04-22T00:06:17.628Z,56.9
2019-04-22T00:07:02.950Z,56.9
2019-04-22T00:09:38.272Z,57.2
2019-04-22T00:10:32.023Z,57.2
2019-04-22T00:11:24.947Z,57.1
2019-04-22T00:12:13.580Z,57.2
2019-04-22T00:12:59.644Z,57.1
2019-04-22T00:13:51.750Z,57
2019-04-22T00:14:33.619Z,56.9
2019-04-22T00:15:19.318Z,56.8
2019-04-22T00:16:14.148Z,56.7
2019-04-22T00:17:06.658Z,56.9
2019-04-22T00:17:53.154Z,56.9
2019-04-22T00:18:54.082Z,56.9
2019-04-22T00:19:41.874Z,56.9
2019-04-22T00:20:29.772Z,56.9
2019-04-22T00:21:19.305Z,57
2019-04-22T00:22:14.939Z,57
2019-04-22T00:22:50.362Z,56.9
2019-04-22T00:23:45.019Z,57
2019-04-22T00:24:36.494Z,57.2
2019-04-22T00:25:34.257Z,57.2
2019-04-22T00:26:22.263Z,57.1
2019-04-22T00:27:13.548Z,57.1
2019-04-22T00:28:02.179Z,56.9
2019-04-22T00:28:43.425Z,56.9
2019-04-22T00:30:40.290Z,57.1
2019-04-22T00:31:20.515Z,57.1
2019-04-22T00:32:04.810Z,57.1
2019-04-22T00:32:55.330Z,57.2
2019-04-22T00:33:38.492Z,57.3
2019-04-22T00:34:33.684Z,57.5
2019-04-22T00:35:23.470Z,57.7
2019-04-22T00:36:21.533Z,57.8
2019-04-22T00:37:07.679Z,57.9
2019-04-22T00:38:02.074Z,58
2019-04-22T00:38:51.257Z,58.3
2019-04-22T00:39:40.791Z,58.5
2019-04-22T00:40:28.067Z,58.9
2019-04-22T00:41:19.024Z,58.9
2019-04-22T00:42:07.589Z,59
2019-04-22T00:42:57.816Z,59.3
2019-04-22T00:43:56.442Z,59.3
2019-04-22T00:45:32.727Z,59
2019-04-22T00:46:24.938Z,59
2019-04-22T00:47:16.211Z,59
2019-04-22T00:48:00.308Z,59.2
2019-04-22T00:50:29.784Z,59.6
2019-04-22T00:51:22.315Z,59.9
2019-04-22T00:52:09.123Z,60.1
2019-04-22T00:53:03.682Z,60.1
2019-04-22T00:53:46.606Z,60.2
2019-04-22T00:54:45.415Z,60.5
2019-04-22T00:55:31.041Z,60.5
2019-04-22T00:56:15.571Z,60.6
2019-04-22T00:57:08.525Z,60.6
2019-04-22T00:58:01.104Z,60.5
2019-04-22T00:58:49.787Z,60.5
2019-04-22T00:59:37.233Z,60.6
2019-04-22T01:00:30.600Z,60.2
2019-04-22T01:01:23.283Z,60
2019-04-22T01:02:12.923Z,60
2019-04-22T01:03:01.457Z,60.1
2019-04-22T01:03:55.268Z,60
2019-04-22T01:06:19.840Z,59.8
2019-04-22T01:07:11.121Z,60
2019-04-22T01:08:05.375Z,60
2019-04-22T01:09:44.395Z,59.8
2019-04-22T01:10:31.562Z,59.7
2019-04-22T01:11:22.530Z,59.6
2019-04-22T01:12:13.321Z,59.7
2019-04-22T01:12:56.583Z,60
2019-04-22T01:13:49.377Z,59.8
2019-04-22T01:15:33.495Z,59.6
2019-04-22T01:16:22.487Z,59.5
2019-04-22T01:17:11.282Z,59.5
2019-04-22T01:17:57.181Z,59.4
2019-04-22T01:18:48.372Z,59.4
2019-04-22T01:19:44.877Z,59.4
2019-04-22T01:20:54.160Z,59.4
2019-04-22T01:21:22.464Z,59.6
2019-04-22T01:22:12.813Z,59.7
2019-04-22T01:22:58.414Z,59.6
2019-04-22T01:23:40.448Z,59.5
2019-04-22T01:25:23.055Z,59.3
2019-04-22T01:26:09.289Z,59.2
2019-04-22T01:27:01.723Z,59.2
2019-04-22T01:27:52.700Z,59.2
2019-04-22T01:28:34.014Z,59.3
2019-04-22T01:29:30.235Z,59.3
2019-04-22T01:30:17.090Z,59.4
2019-04-22T01:31:04.624Z,59.5
2019-04-22T01:31:47.754Z,59.7
2019-04-22T01:32:41.602Z,59.7
2019-04-22T01:33:35.080Z,59.8
2019-04-22T01:34:33.032Z,59.8
2019-04-22T01:35:20.657Z,59.9
2019-04-22T01:36:13.521Z,60.1
2019-04-22T01:37:02.341Z,60.1
2019-04-22T01:37:54.026Z,60.4
2019-04-22T01:38:51.022Z,60.6
2019-04-22T01:39:43.349Z,60.6
2019-04-22T01:40:38.356Z,60.7
2019-04-22T01:41:22.816Z,60.7
2019-04-22T01:42:08.988Z,60.9
2019-04-22T01:43:06.789Z,61
2019-04-22T01:43:58.557Z,61.1
2019-04-22T01:44:43.586Z,61.3
2019-04-22T01:45:31.086Z,61.5
2019-04-22T01:46:24.558Z,61.5
2019-04-22T01:47:09.921Z,61.3
2019-04-22T01:48:02.154Z,61.3
2019-04-22T01:48:54.154Z,61.6
2019-04-22T01:49:39.686Z,61.7
2019-04-22T01:50:30.499Z,61.8
2019-04-22T01:51:28.094Z,61.8
2019-04-22T01:52:11.273Z,61.9
2019-04-22T01:53:04.643Z,61.7
2019-04-22T01:53:57.453Z,61.6
2019-04-22T01:56:19.312Z,61.8
2019-04-22T01:57:09.693Z,61.8
2019-04-22T01:57:59.090Z,61.8
2019-04-22T01:58:43.745Z,61.8
2019-04-22T01:59:35.362Z,61.9
2019-04-22T02:00:35.361Z,61.7
2019-04-22T02:01:21.916Z,61.9
2019-04-22T02:02:16.018Z,61.8
2019-04-22T02:03:03.995Z,61.8
2019-04-22T02:03:54.317Z,61.8
2019-04-22T02:04:42.862Z,61.7
2019-04-22T02:05:33.891Z,61.7
2019-04-22T02:06:21.715Z,61.7
2019-04-22T02:07:16.035Z,61.9
2019-04-22T02:08:03.915Z,62
2019-04-22T02:09:42.513Z,62.4
2019-04-22T02:11:25.384Z,62.5
2019-04-22T02:12:12.719Z,62.7
2019-04-22T02:13:06.328Z,62.8
2019-04-22T02:14:43.856Z,62.7
2019-04-22T02:15:30.856Z,62.9
2019-04-22T02:16:27.170Z,63.1
2019-04-22T02:18:09.459Z,63.4
2019-04-22T02:18:51.946Z,63.4
2019-04-22T02:19:45.381Z,63.6
2019-04-22T02:20:30.971Z,63.7
2019-04-22T02:21:19.988Z,63.7
2019-04-22T02:22:17.443Z,63.7
2019-04-22T02:23:15.097Z,63.8
2019-04-22T02:23:53.084Z,63.8
2019-04-22T02:24:43.672Z,63.9
2019-04-22T02:26:25.177Z,64
2019-04-22T02:27:17.200Z,63.9
2019-04-22T02:28:04.752Z,64
2019-04-22T02:28:44.044Z,63.8
2019-04-22T02:29:34.245Z,63.9
2019-04-22T02:30:49.143Z,63.9
2019-04-22T02:31:35.500Z,63.9
2019-04-22T02:32:26.719Z,63.9
2019-04-22T02:33:24.616Z,63.8
2019-04-22T02:35:47.911Z,64
2019-04-22T02:36:28.873Z,64.2
2019-04-22T02:37:18.439Z,64.1
2019-04-22T02:38:18.747Z,64.3
2019-04-22T02:39:03.770Z,64.5
2019-04-22T02:39:46.551Z,64.4
2019-04-22T02:40:55.762Z,64.4
2019-04-22T02:42:13.621Z,64.5
2019-04-22T02:43:10.990Z,64.3
2019-04-22T02:44:08.016Z,64.5
2019-04-22T02:44:46.383Z,64.7
2019-04-22T02:45:49.701Z,64.9
2019-04-22T02:46:52.215Z,65
2019-04-22T02:48:09.617Z,64.9
2019-04-22T02:49:10.707Z,65
2019-04-22T02:49:44.857Z,65.2
2019-04-22T02:50:27.854Z,65.4
2019-04-22T02:51:27.584Z,65.2
2019-04-22T02:53:13.055Z,65.3
2019-04-22T02:54:21.351Z,65.4
2019-04-22T02:54:54.349Z,65.4
2019-04-22T02:55:40.561Z,65.5
2019-04-22T02:56:31.222Z,65.5
2019-04-22T02:58:54.824Z,65.6
2019-04-22T02:59:56.461Z,65.7
2019-04-22T03:01:35.917Z,65.7
2019-04-22T03:02:40.695Z,65.7
2019-04-22T03:03:20.280Z,65.9
2019-04-22T03:04:43.497Z,65.8
2019-04-22T03:05:44.882Z,65.8
2019-04-22T03:07:14.447Z,66.1
2019-04-22T03:08:14.343Z,66.2
2019-04-22T03:09:02.917Z,66.2
2019-04-22T03:09:52.474Z,66
2019-04-22T03:11:32.725Z,66.1
2019-04-22T03:13:20.908Z,66.1
2019-04-22T03:13:54.940Z,66.1
2019-04-22T03:14:47.690Z,66.1
2019-04-22T03:15:50.702Z,66.3
2019-04-22T03:16:37.417Z,66.4
2019-04-22T03:17:20.308Z,66.4
2019-04-22T03:18:19.170Z,66.5
2019-04-22T03:18:54.824Z,66.5
2019-04-22T03:19:49.922Z,66.5
2019-04-22T03:20:33.249Z,66.5
2019-04-22T03:22:20.512Z,66.8
2019-04-22T03:24:15.348Z,66.9
2019-04-22T03:28:18.391Z,67.2
2019-04-22T03:29:02.470Z,66.9
2019-04-22T03:30:15.942Z,67
2019-04-22T03:31:57.346Z,67.2
2019-04-22T03:33:23.085Z,67.3
2019-04-22T03:34:54.136Z,67.2
2019-04-22T03:36:57.007Z,67.5
2019-04-22T03:37:03.440Z,67.5
2019-04-22T03:37:31.661Z,67.7
2019-04-22T03:38:06.982Z,67.7
2019-04-22T03:39:03.474Z,67.7
2019-04-22T03:40:11.620Z,67.7
2019-04-22T03:40:45.969Z,67.7
2019-04-22T03:41:47.369Z,67.8
2019-04-22T03:42:43.399Z,67.7
2019-04-22T03:43:13.061Z,67.6
2019-04-22T03:43:53.762Z,67.6
2019-04-22T03:44:59.896Z,67.6
2019-04-22T03:45:37.593Z,67.7
2019-04-22T03:46:41.592Z,67.6
2019-04-22T03:48:58.220Z,67.9
2019-04-22T03:50:35.922Z,68
2019-04-22T03:51:35.574Z,67.9
2019-04-22T03:54:09.807Z,68
2019-04-22T03:55:01.631Z,68.1
2019-04-22T03:55:42.941Z,68.1
2019-04-22T03:57:06.726Z,68.2
2019-04-22T03:57:51.752Z,68
2019-04-22T03:59:26.416Z,68.1
2019-04-22T03:59:47.466Z,68.1
2019-04-22T04:01:43.575Z,68.3
2019-04-22T04:02:28.631Z,68.3
2019-04-22T04:03:11.469Z,68.4
2019-04-22T04:04:15.045Z,68.5
2019-04-22T04:04:49.182Z,68.5
2019-04-22T04:06:49.495Z,68.6
2019-04-22T04:07:19.877Z,68.6
2019-04-22T04:08:03.335Z,68.6
2019-04-22T04:09:08.732Z,68.7
2019-04-22T04:09:57.981Z,68.8
2019-04-22T04:10:47.473Z,68.9
2019-04-22T04:11:42.561Z,69
2019-04-22T04:12:23.174Z,68.9
2019-04-22T04:13:02.607Z,68.9
2019-04-22T04:14:09.119Z,69
2019-04-22T04:15:33.842Z,68.9
2019-04-22T04:16:38.571Z,68.8
2019-04-22T04:17:28.620Z,68.9
2019-04-22T04:18:08.929Z,68.9
2019-04-22T04:20:05.336Z,69
2019-04-22T04:20:44.398Z,69
2019-04-22T04:22:51.975Z,69.2
2019-04-22T04:25:05.128Z,69.1
2019-04-22T04:25:46.360Z,69.2
2019-04-22T04:27:42.520Z,69.4
2019-04-22T04:28:29.098Z,69.5
2019-04-22T04:29:25.082Z,69.5
2019-04-22T04:30:04.949Z,69.7
2019-04-22T04:30:35.653Z,69.6
2019-04-22T04:31:40.461Z,69.7
2019-04-22T04:33:15.585Z,69.6
2019-04-22T04:35:45.764Z,69.8
2019-04-22T04:36:33.884Z,69.9
2019-04-22T04:38:10.517Z,70
2019-04-22T04:39:12.772Z,70.1
2019-04-22T04:40:39.692Z,70
2019-04-22T04:41:51.590Z,70.1
2019-04-22T04:42:32.353Z,70.1
2019-04-22T04:43:15.398Z,70.1
2019-04-22T04:44:10.189Z,70.3
2019-04-22T04:45:10.675Z,70.3
2019-04-22T04:47:25.475Z,70.3
2019-04-22T04:48:11.084Z,70.6
2019-04-22T04:49:17.500Z,70.6
2019-04-22T04:49:56.710Z,70.7
2019-04-22T04:50:46.791Z,70.8
2019-04-22T04:51:55.395Z,70.6
2019-04-22T04:52:38.350Z,70.6
2019-04-22T04:54:58.607Z,70.8
2019-04-22T04:55:45.404Z,70.8
2019-04-22T04:56:35.737Z,71.1
2019-04-22T04:58:24.699Z,71.1
2019-04-22T05:00:21.504Z,71.3
2019-04-22T05:01:35.013Z,71.4
2019-04-22T05:02:28.495Z,71.5
2019-04-22T05:03:20.074Z,71.4
2019-04-22T05:04:03.906Z,71.6
2019-04-22T05:05:02.468Z,71.4
2019-04-22T05:05:39.337Z,71.5
2019-04-22T05:06:42.470Z,71.4
2019-04-22T05:08:11.770Z,71.4
2019-04-22T05:09:58.949Z,71.5
2019-04-22T05:10:40.940Z,71.4
2019-04-22T05:11:44.714Z,71.5
2019-04-22T05:12:33.304Z,71.6
2019-04-22T05:13:10.008Z,71.6
2019-04-22T05:14:05.304Z,71.6
2019-04-22T05:14:36.545Z,71.5
2019-04-22T05:15:59.251Z,71.5
2019-04-22T05:16:40.114Z,71.8
2019-04-22T05:17:25.014Z,71.8
2019-04-22T05:18:12.088Z,71.7
2019-04-22T05:19:56.434Z,72.2
2019-04-22T05:20:50.437Z,72
2019-04-22T05:21:29.333Z,72.1
2019-04-22T05:22:20.194Z,72.7
2019-04-22T05:22:57.477Z,72.5
2019-04-22T05:24:02.211Z,72.5
2019-04-22T05:24:50.509Z,72.6
2019-04-22T05:25:31.459Z,72.6
2019-04-22T05:26:32.360Z,72.9
2019-04-22T05:28:09.931Z,72.9
2019-04-22T05:28:57.148Z,72.7
2019-04-22T05:29:46.210Z,72.8
2019-04-22T05:30:38.986Z,72.7
2019-04-22T05:31:31.962Z,72.8
2019-04-22T05:32:16.267Z,72.8
2019-04-22T05:33:06.882Z,72.9
2019-04-22T05:34:47.751Z,73
2019-04-22T05:35:37.352Z,73.1
2019-04-22T05:36:27.909Z,73.1
2019-04-22T05:37:20.397Z,73.4
2019-04-22T05:38:02.260Z,73.7
2019-04-22T05:38:59.670Z,73.8
2019-04-22T05:39:48.375Z,73.7
2019-04-22T05:40:34.002Z,73.7
2019-04-22T05:41:28.547Z,73.6
2019-04-22T05:42:17.512Z,73.8
2019-04-22T05:43:07.474Z,73.8
2019-04-22T05:44:02.626Z,73.9
2019-04-22T05:44:54.742Z,73.9
2019-04-22T05:45:36.710Z,74
2019-04-22T05:46:28.134Z,74.1
2019-04-22T05:47:19.271Z,74.2
2019-04-22T05:48:09.211Z,74.4
2019-04-22T05:48:58.522Z,74.5
2019-04-22T05:49:47.272Z,74.5
2019-04-22T05:50:36.524Z,74.7
2019-04-22T05:51:30.925Z,74.8
2019-04-22T05:52:20.041Z,75
2019-04-22T05:53:06.349Z,75.1
2019-04-22T05:54:00.968Z,75.1
2019-04-22T05:54:46.669Z,75.1
2019-04-22T05:55:41.359Z,75.1
2019-04-22T05:57:23.181Z,75.1
2019-04-22T05:58:08.143Z,75
2019-04-22T05:59:51.798Z,74.7
2019-04-22T06:01:03.476Z,74.6
2019-04-22T06:01:37.787Z,73.9
2019-04-22T06:02:30.235Z,73.5
2019-04-22T06:03:01.394Z,73.1
2019-04-22T06:04:05.140Z,72.6
2019-04-22T06:04:51.648Z,72.2
2019-04-22T06:05:30.136Z,71.8
2019-04-22T06:06:39.774Z,71.7
2019-04-22T06:07:19.058Z,71.7
2019-04-22T06:08:10.083Z,71.6
2019-04-22T06:09:14.476Z,71.1
2019-04-22T06:09:48.755Z,70.8
2019-04-22T06:10:45.192Z,70.5
2019-04-22T06:11:28.996Z,70
2019-04-22T06:12:16.812Z,69.5
2019-04-22T06:13:04.232Z,69.1
2019-04-22T06:14:00.756Z,69.2
2019-04-22T06:14:53.608Z,69.4
2019-04-22T06:15:37.133Z,68.7
2019-04-22T06:17:23.777Z,68.7
2019-04-22T06:19:06.976Z,67.7
2019-04-22T06:19:44.018Z,67.7
2019-04-22T06:20:45.258Z,66.9
2019-04-22T06:21:36.887Z,66.7
2019-04-22T06:22:29.938Z,66.2
2019-04-22T06:23:17.214Z,66.1
2019-04-22T06:24:55.049Z,65.7
2019-04-22T06:25:56.945Z,65.9
2019-04-22T06:26:45.601Z,65.7
2019-04-22T06:27:14.387Z,65.6
2019-04-22T06:28:21.871Z,65.4
2019-04-22T06:29:09.046Z,65.4
2019-04-22T06:29:41.035Z,65.3
2019-04-22T06:30:48.230Z,65.2
2019-04-22T06:31:42.061Z,65.3
2019-04-22T06:33:20.045Z,65.1
2019-04-22T06:33:54.248Z,64.8
2019-04-22T06:34:57.858Z,64.7
2019-04-22T06:35:48.483Z,64.4
2019-04-22T06:36:35.742Z,64.3
2019-04-22T06:37:22.024Z,64.3
2019-04-22T06:39:07.230Z,64.2
2019-04-22T06:39:50.374Z,64.1
2019-04-22T06:40:46.360Z,64
2019-04-22T06:41:32.870Z,63.8
2019-04-22T06:45:10.557Z,63.5
2019-04-22T06:45:43.360Z,63.6
2019-04-22T06:46:39.493Z,63.7
2019-04-22T06:47:43.684Z,63.6
2019-04-22T06:49:08.933Z,63.4
2019-04-22T06:49:54.342Z,63.1
2019-04-22T06:50:47.390Z,63
2019-04-22T06:51:36.884Z,62.8
2019-04-22T06:52:20.503Z,62.3
2019-04-22T06:53:16.111Z,62.2
2019-04-22T06:54:07.098Z,62.2
2019-04-22T06:55:45.271Z,62.4
2019-04-22T06:56:26.994Z,62
2019-04-22T06:57:25.071Z,62.1
2019-04-22T06:58:14.894Z,61.9
2019-04-22T06:59:06.472Z,61.7
2019-04-22T06:59:58.409Z,61.8
2019-04-22T07:00:41.435Z,62
2019-04-22T07:01:54.370Z,62
2019-04-22T07:02:31.816Z,60.5
2019-04-22T07:04:02.614Z,60.9
2019-04-22T07:04:56.131Z,60.9
2019-04-22T07:05:46.192Z,61.1
2019-04-22T07:06:41.411Z,60.9
2019-04-22T07:07:23.370Z,61
2019-04-22T07:08:38.927Z,60.9
2019-04-22T07:09:20.400Z,60.9
2019-04-22T07:10:06.234Z,60.2
2019-04-22T07:10:47.528Z,60.2
2019-04-22T07:11:35.865Z,60.2
2019-04-22T07:12:34.232Z,60.3
2019-04-22T07:14:08.666Z,60
2019-04-22T07:15:10.884Z,60
2019-04-22T07:15:57.254Z,59.6
2019-04-22T07:16:43.039Z,59.3
2019-04-22T07:17:35.333Z,59.1
2019-04-22T07:19:13.408Z,58.3
2019-04-22T07:20:09.978Z,57.7
2019-04-22T07:20:56.183Z,57.4
2019-04-22T07:21:49.912Z,55.6
2019-04-22T07:22:33.324Z,55.1
2019-04-22T07:24:53.635Z,55.5
2019-04-22T07:25:34.379Z,55.5
2019-04-22T07:26:24.017Z,55.3
2019-04-22T07:27:14.155Z,55
2019-04-22T07:27:58.043Z,55.2
2019-04-22T07:28:54.750Z,55.2
2019-04-22T07:30:38.529Z,55
2019-04-22T07:31:26.477Z,54.7
2019-04-22T07:33:11.225Z,54.6
2019-04-22T07:34:07.915Z,54.7
2019-04-22T07:34:51.691Z,54.8
2019-04-22T07:35:35.708Z,54.6
2019-04-22T07:36:45.377Z,55
2019-04-22T07:37:31.218Z,55.1
2019-04-22T07:38:17.372Z,54.9
2019-04-22T07:39:03.843Z,55.1
2019-04-22T07:39:49.658Z,55.3
2019-04-22T07:40:49.985Z,54.8
2019-04-22T07:41:31.571Z,54.3
2019-04-22T07:42:30.893Z,54.3
2019-04-22T07:43:19.428Z,54.4
2019-04-22T07:44:04.675Z,54.3
2019-04-22T07:44:54.625Z,54.3
2019-04-22T07:46:33.370Z,53.8
2019-04-22T07:48:18.644Z,53.4
2019-04-22T07:49:10.336Z,53.5
2019-04-22T07:49:58.844Z,53.7
2019-04-22T07:50:55.483Z,53.9
2019-04-22T07:51:43.465Z,54.2
2019-04-22T07:52:33.258Z,54.3
2019-04-22T07:53:21.464Z,53.5
2019-04-22T07:54:13.013Z,52.2
2019-04-22T07:55:00.589Z,52.2
2019-04-22T07:55:51.666Z,52.1
2019-04-22T07:56:43.522Z,52.2
2019-04-22T07:57:32.205Z,52.5
2019-04-22T07:58:23.685Z,52.6
2019-04-22T07:59:15.020Z,53.2
2019-04-22T08:00:08.528Z,52.5
2019-04-22T08:01:01.791Z,52.5
2019-04-22T08:01:41.348Z,52.7
2019-04-22T08:02:43.465Z,52.5
2019-04-22T08:03:43.714Z,52.4
2019-04-22T08:05:51.302Z,51.2
2019-04-22T08:07:23.631Z,49.6
2019-04-22T08:09:50.626Z,48.8
2019-04-22T08:10:48.144Z,48.4
2019-04-22T08:12:38.379Z,49
2019-04-22T08:13:30.233Z,48.3
2019-04-22T08:14:14.043Z,48.9
2019-04-22T08:15:05.298Z,48.7
2019-04-22T08:15:57.938Z,47.4
2019-04-22T08:16:49.231Z,47.1
2019-04-22T08:17:54.581Z,46.6
2019-04-22T08:18:38.904Z,46.1
2019-04-22T08:19:55.452Z,45.7
2019-04-22T08:20:40.218Z,46.2
2019-04-22T08:23:04.053Z,46.1
2019-04-22T08:24:01.036Z,45.8
2019-04-22T08:24:53.841Z,45.4
2019-04-22T08:26:37.780Z,44.8
2019-04-22T08:27:34.960Z,44.1
2019-04-22T08:28:30.146Z,42.7
2019-04-22T08:29:25.008Z,42.5
2019-04-22T08:30:13.755Z,41.8
2019-04-22T08:31:54.634Z,41.5
2019-04-22T08:32:45.331Z,41.1
2019-04-22T08:34:24.439Z,41.1
2019-04-22T08:35:19.821Z,41.1
2019-04-22T08:36:25.460Z,40.9
2019-04-22T08:37:23.752Z,40.8
2019-04-22T08:38:14.425Z,41.4
2019-04-22T08:39:13.401Z,41.3
2019-04-22T08:40:19.809Z,41.2
2019-04-22T08:41:16.186Z,41.6
2019-04-22T08:42:17.580Z,40.5
2019-04-22T17:17:20.183Z,28.7
2019-04-22T17:18:09.761Z,30
2019-04-22T17:19:00.524Z,30.5
2019-04-22T17:19:51.443Z,29.6
2019-04-22T17:20:40.661Z,29.2
2019-04-22T17:21:31.749Z,28.7
2019-04-22T17:22:21.704Z,28.9
2019-04-22T17:23:15.740Z,28.4
2019-04-22T17:24:01.454Z,28.7
2019-04-22T17:24:51.151Z,28.5
2019-04-22T17:25:42.597Z,28.9
2019-04-22T17:26:32.457Z,29.1
2019-04-22T17:27:22.348Z,29.1
2019-04-22T17:28:11.221Z,29.3
2019-04-22T17:29:04.575Z,29.1
2019-04-22T17:29:52.372Z,28.5
2019-04-22T17:30:41.507Z,28.4
2019-04-22T17:31:31.214Z,28.5
2019-04-22T17:32:23.410Z,28.2
2019-04-22T17:33:12.612Z,28.1
2019-04-22T17:34:02.451Z,28.3
2019-04-22T17:34:53.516Z,28.3
2019-04-22T17:35:45.258Z,28.5
2019-04-22T17:36:32.363Z,28.7
2019-04-22T17:37:26.191Z,28.8
2019-04-22T17:38:20.879Z,28.7
2019-04-22T17:39:17.009Z,28.7
2019-04-22T17:40:05.511Z,29.3
2019-04-22T17:40:55.679Z,29.7
2019-04-22T17:41:41.681Z,29.2
2019-04-22T17:42:35.221Z,29.2
2019-04-22T17:43:40.302Z,29.6
2019-04-22T17:44:24.801Z,29.4
2019-04-22T17:45:15.538Z,29.5
2019-04-22T17:45:55.640Z,29.7
2019-04-22T17:46:40.037Z,29.9
2019-04-22T17:47:32.831Z,29.6
2019-04-22T17:48:30.241Z,29.3
2019-04-22T17:50:11.357Z,29.2
2019-04-22T17:50:59.429Z,29.8
2019-04-22T17:51:53.312Z,29.3
2019-04-22T17:52:30.200Z,28.6
2019-04-22T17:53:33.194Z,28.5
2019-04-22T17:54:15.047Z,28.5
2019-04-22T17:55:04.319Z,28.7
2019-04-22T17:56:08.073Z,28.8
2019-04-22T17:57:52.172Z,28.8
2019-04-22T17:58:56.670Z,28.8
2019-04-22T18:01:14.543Z,28.6
2019-04-22T18:03:02.955Z,28.8
2019-04-22T18:03:49.571Z,28.8
2019-04-22T18:04:38.540Z,29
2019-04-22T18:05:34.525Z,29.2
2019-04-22T18:06:43.929Z,29.5
2019-04-22T18:07:38.175Z,29.3
2019-04-22T18:11:01.394Z,29.3
2019-04-22T18:11:50.566Z,29.5
2019-04-22T18:12:58.460Z,29.4
2019-04-22T18:14:34.263Z,29.3
2019-04-22T18:15:09.628Z,29.3
2019-04-22T18:16:11.667Z,29.3
2019-04-22T18:17:06.726Z,29.4
2019-04-22T18:18:00.406Z,29.6
2019-04-22T18:18:42.720Z,29.8
2019-04-22T18:19:39.428Z,29.8
2019-04-22T18:20:33.242Z,29.9
2019-04-22T18:21:26.256Z,29.8
2019-04-22T18:25:11.109Z,30.2
2019-04-22T18:26:12.218Z,30.3
2019-04-22T18:27:06.761Z,30.5
2019-04-22T18:27:58.457Z,30.4
2019-04-22T18:28:49.152Z,30.5
2019-04-22T18:36:03.533Z,31.2
2019-04-22T18:36:54.650Z,31.4
2019-04-22T18:37:53.298Z,31.1
2019-04-22T18:38:51.290Z,31.2
2019-04-22T18:43:41.833Z,31.4
2019-04-22T18:46:14.175Z,31.5
2019-04-22T18:47:00.755Z,31.7
2019-04-22T18:47:48.688Z,31.7
2019-04-22T18:48:43.897Z,31.5
2019-04-22T18:49:37.004Z,31.7
2019-04-22T18:50:31.807Z,31.7
2019-04-22T18:51:24.306Z,31.5
2019-04-22T18:51:57.034Z,31.7
2019-04-22T18:52:52.838Z,31.7
2019-04-22T18:53:46.366Z,31.6
2019-04-22T18:54:35.883Z,31.8
2019-04-22T18:55:21.909Z,31.9
2019-04-22T18:56:15.920Z,32.1
2019-04-22T18:57:02.183Z,32.2
2019-04-22T18:58:38.940Z,32.1
2019-04-22T18:59:22.409Z,32
2019-04-22T19:00:07.008Z,31.8
2019-04-22T19:01:01.776Z,31.9
2019-04-22T19:01:52.227Z,31.9
2019-04-22T19:02:47.433Z,32.1
2019-04-22T19:03:40.563Z,32.1
2019-04-22T19:04:27.375Z,32.2
2019-04-22T19:07:34.463Z,32
2019-04-22T19:08:22.433Z,32.1
2019-04-22T19:09:10.410Z,32.1
2019-04-22T19:10:02.925Z,32.2
2019-04-22T19:11:42.597Z,32.6
2019-04-22T19:12:33.597Z,32.6
2019-04-22T19:17:03.714Z,32.4
2019-04-22T19:18:01.568Z,32.6
2019-04-22T19:18:45.740Z,32.8
2019-04-22T19:19:40.610Z,32.9
2019-04-22T19:20:37.253Z,33
2019-04-22T19:21:19.132Z,32.8
2019-04-22T19:22:12.183Z,32.8
2019-04-22T19:23:03.566Z,32.6
2019-04-22T19:24:41.364Z,32.9
2019-04-22T19:25:28.926Z,32.9
2019-04-22T19:26:35.595Z,33.1
2019-04-22T19:27:01.831Z,33.2
2019-04-22T19:28:11.271Z,33.4
2019-04-22T19:28:53.943Z,33.6
2019-04-22T19:29:42.912Z,33.8
2019-04-22T19:30:36.347Z,33.8
2019-04-22T19:31:24.354Z,33.8
2019-04-22T19:32:11.258Z,34
2019-04-22T19:33:10.463Z,34
2019-04-22T19:33:53.350Z,34.4
2019-04-22T19:34:42.600Z,34.2
2019-04-22T19:35:29.658Z,34.2
2019-04-22T19:36:25.091Z,34.1
2019-04-22T19:37:12.818Z,34.1
2019-04-22T19:37:57.245Z,34.2
2019-04-22T19:38:52.332Z,34.3
2019-04-22T19:39:52.355Z,34.2
2019-04-22T19:40:40.252Z,34.1
2019-04-22T19:41:28.916Z,34.3
2019-04-22T19:42:16.575Z,34.5
2019-04-22T19:43:02.083Z,34.5
2019-04-22T19:43:56.536Z,34.6
2019-04-22T19:44:42.664Z,34.4
2019-04-22T19:45:32.391Z,34.4
2019-04-22T19:46:22.002Z,34.4
2019-04-22T19:48:21.276Z,34.3
2019-04-22T19:49:09.922Z,34.3
2019-04-22T19:50:03.687Z,34.2
2019-04-22T19:50:57.391Z,34.2
2019-04-22T19:51:45.413Z,34.4
2019-04-22T19:52:33.167Z,34.3
2019-04-22T19:53:22.496Z,34.5
2019-04-22T19:54:07.278Z,34.6
2019-04-22T19:55:00.978Z,34.8
2019-04-22T19:55:45.794Z,34.7
2019-04-22T19:56:32.141Z,34.5
2019-04-22T19:57:26.261Z,34.6
2019-04-22T19:58:14.585Z,34.7
2019-04-22T19:59:01.941Z,34.8
2019-04-22T20:00:01.480Z,34.8
2019-04-22T20:00:45.812Z,35
2019-04-22T20:01:41.450Z,35.3
2019-04-22T20:02:28.479Z,35.4
2019-04-22T20:03:28.664Z,35.5
2019-04-22T20:04:21.442Z,35.4
2019-04-22T20:05:05.680Z,35.2
2019-04-22T20:05:52.355Z,35.2
2019-04-22T20:06:41.051Z,35.1
2019-04-22T20:07:27.101Z,35.4
2019-04-22T20:09:13.152Z,35.4
2019-04-22T20:10:04.201Z,35.8
2019-04-22T20:10:49.869Z,36.1
2019-04-22T20:11:43.279Z,36.5
2019-04-22T20:12:30.343Z,36.8
2019-04-22T20:13:30.011Z,36.8
2019-04-22T20:14:16.407Z,37
2019-04-22T20:15:00.095Z,37.2
2019-04-22T20:15:45.807Z,37.5
2019-04-22T20:16:37.276Z,37.9
2019-04-22T20:18:08.432Z,38
2019-04-22T20:19:18.731Z,37.9
2019-04-22T20:20:07.768Z,37.9
2019-04-22T20:20:57.946Z,38.1
2019-04-22T20:21:46.372Z,38.3
2019-04-22T20:22:32.455Z,38.8
2019-04-22T20:23:18.042Z,38.8
2019-04-22T20:24:04.198Z,39.1
2019-04-22T20:24:53.711Z,39.1
2019-04-22T20:26:49.293Z,39.4
2019-04-22T20:27:36.183Z,39.5
2019-04-22T20:28:23.734Z,39.4
2019-04-22T20:29:08.465Z,39.5
2019-04-22T20:30:54.890Z,39.6
2019-04-22T20:31:49.366Z,39.3
2019-04-22T20:32:30.869Z,39.1
2019-04-22T20:33:28.903Z,38.8
2019-04-22T20:34:19.432Z,38.7
2019-04-22T20:35:56.471Z,38.5
2019-04-22T20:37:10.065Z,38.4
2019-04-22T20:37:38.270Z,38.8
2019-04-22T20:38:24.466Z,38.6
2019-04-22T20:39:10.380Z,38.2
2019-04-22T20:40:05.297Z,37.6
2019-04-22T20:40:54.844Z,37.8
2019-04-22T20:41:40.861Z,37.7
2019-04-22T20:42:43.064Z,37.4
2019-04-22T20:43:34.866Z,37.3
2019-04-22T20:44:15.528Z,37.5
2019-04-22T20:45:09.451Z,37.3
2019-04-22T20:45:57.303Z,37.6
2019-04-22T20:46:43.301Z,37.5
2019-04-22T20:47:30.130Z,37.4
2019-04-22T20:48:13.388Z,37.2
2019-04-22T20:49:18.329Z,37.1
2019-04-22T20:50:05.170Z,37.7
2019-04-22T20:50:57.517Z,37.8
2019-04-22T20:51:52.668Z,37.5
2019-04-22T20:52:38.028Z,37.4
2019-04-22T20:53:23.893Z,37.5
2019-04-22T20:54:15.631Z,37.6
2019-04-22T20:55:02.410Z,37.7
2019-04-22T20:55:58.577Z,37.7
2019-04-22T20:56:43.705Z,37.7
2019-04-22T20:57:40.066Z,38
2019-04-22T20:58:28.142Z,38.2
2019-04-22T20:59:17.660Z,38.1
2019-04-22T21:00:01.953Z,37.9
2019-04-22T21:00:45.962Z,37.8
2019-04-22T21:02:27.433Z,38.1
2019-04-22T21:03:20.703Z,37.9
2019-04-22T21:04:11.197Z,37.9
2019-04-22T21:04:58.570Z,37.9
2019-04-22T21:05:54.546Z,38.3
2019-04-22T21:06:51.099Z,38.3
2019-04-22T21:07:36.592Z,38.1
2019-04-22T21:08:34.868Z,37.9
2019-04-22T21:09:27.107Z,38.1
2019-04-22T21:10:11.310Z,38.1
2019-04-22T21:10:58.335Z,38
2019-04-22T21:11:51.645Z,37.9
2019-04-22T21:13:27.447Z,37.9
2019-04-22T21:14:23.000Z,37.9
2019-04-22T21:15:19.206Z,38
2019-04-22T21:16:08.802Z,38.1
2019-04-22T21:16:55.860Z,38.1
2019-04-22T21:17:44.515Z,38.2
2019-04-22T21:18:30.304Z,38.1
2019-04-22T21:19:35.069Z,38.3
2019-04-22T21:20:17.060Z,38.4
2019-04-22T21:21:06.931Z,38.4
2019-04-22T21:21:56.270Z,38.8
2019-04-22T21:22:43.170Z,38.9
2019-04-22T21:23:26.325Z,39
2019-04-22T21:24:23.459Z,38.8
2019-04-22T21:25:08.709Z,39
2019-04-22T21:26:07.871Z,38.9
2019-04-22T21:26:53.562Z,39.1
2019-04-22T21:27:40.238Z,39.2
2019-04-22T21:28:38.013Z,39.2
2019-04-22T21:29:19.861Z,39.3
2019-04-22T21:30:07.497Z,39.3
2019-04-22T21:31:02.445Z,39.2
2019-04-22T21:31:54.400Z,39
2019-04-22T21:32:44.544Z,39.1
2019-04-22T21:33:28.211Z,39.1
2019-04-22T21:34:23.055Z,39.1
2019-04-22T21:35:19.583Z,39.1
2019-04-22T21:36:13.611Z,39.2
2019-04-22T21:37:02.184Z,39.1
2019-04-22T21:37:49.811Z,39.1
2019-04-22T21:38:37.062Z,39
2019-04-22T21:39:23.006Z,39
2019-04-22T21:40:11.735Z,39.1
2019-04-22T21:41:04.616Z,39.1
2019-04-22T21:41:51.251Z,39.2
2019-04-22T21:42:52.934Z,39.2
2019-04-22T21:43:35.509Z,39
2019-04-22T21:44:24.585Z,39.1
2019-04-22T21:45:07.034Z,39.2
2019-04-22T21:46:08.000Z,39.1
2019-04-22T21:47:02.867Z,39.2
2019-04-22T21:47:56.957Z,39.4
2019-04-22T21:50:34.956Z,39.2
2019-04-22T21:51:10.602Z,39.4
2019-04-22T21:51:53.196Z,39.5
2019-04-22T21:52:48.920Z,39.5
2019-04-22T21:53:43.121Z,39.6
2019-04-22T21:54:26.343Z,39.7